АЭРОДРОМУУД

ICAO:
ZMUB
Нэр:
УЛААНБААТАР / БУЯНТ-УХАА
Ахц:
475033N 1064603E
210635 ZMUBYNYX
(A0552/20 NOTAMN
Q) ZMUB/QNVAS/IV/BO /AE/000/999/4752N10644E025
A) ZMUB B) 2009230100 C) 2009230900
E) ULAANBAATAR VOR/DME UDA 116MHZ/CH107X, VOR PART U/S.)
- 2 days ago -

150317 ZMUBYNYX
(A0547/20 NOTAMR A0514/20
Q) ZMUB/QFAXX/IV/NBO/A /000/999/4750N10646E005
A) ZMUB B) 2009150317 C) 2010311600
E) AD CLSD FOR INTL SKED FLT DUE TO COVID-19 INFECTION PREVENTION.)
- 1 week ago -

010757 ZMUBYNYX
(A0519/20 NOTAMN
Q) ZMUB/QFAHX/IV/NBO/A /000/999/4752N10642E002
A) ZMUB B) 2009010757 C) 2009301000
D) 01 0757-1000 02-30 0200-1000
E) AD BIRD CONCENTRATION WI: 475309N1064357E-475205N1064416E-475108N1064211E-475224N1064113E-47530 9N1064357E
F) GND G) 200M AGL)
- 3 weeks ago -

010525 ZMUBYNYX
(A0518/20 NOTAMR A0515/20
Q) ZMUB/QKKKK/K /K /K /000/999/4752N10350E999
A) ZMUB B) 2009010525 C) 2010010700 EST
E) CHECKLIST YEAR=2019 0246 0646 0647 YEAR=2020 0364 0404 0434 0459 0462 0463 0464 0465 0466 0472 0501 0513 0514 0516 0517 LATEST PUBLICATIONS: AIRAC AIP SUP : 01/18 WEF 21 JUN 2018 AIP SUP : 04/20 PUBLICATION DATE 27 AUG 2020 AIRAC AIP AMDT: 07/20 WEF 08 OCT 2020 AIP AMDT : 03/20 PUBLICATION DATE 27 AUG 2020 AIC(SERIES A) : 06/20 PUBLICATION DATE 13 AUG 2020 AIP DATA SET : AIPZM-AMDT01-20 WEF 08 OCT 2020 OBST DATA SET: O-AREA1ZM200618 WEF 18 JUN 2020 O-AREA2ZMCK200618 WEF 18 JUN 2020 O-AREA2ZMUB200730 WEF 10 SEP 2020 O-AREA3ZMCK200618 WEF 18 JUN 2020 O-AREA3ZMUB200618 WEF 18 JUN 2020 TERRAIN DATA SET: T-AREA1ZM200618 WEF 18 JUN 2020 T-AREA2ZMCK200618 WEF 18 JUN 2020 T-AREA2ZMUB200618 WEF 18 JUN 2020 T-AREA3ZMCK200618 WEF 18 JUN 2020 T-AREA3ZMUB200618 WEF 18 JUN 2020 AD MAPPING DATA SET: AMDBZMCK200618 WEF 18 JUN 2020 AMDBZMUB200618 WEF 18 JUN 2020 AMDBZMDZ200618 WEF 18 JUN 2020 IFP DATA SET: IFPZM20 WEF 10 SEP 2020 AIP SUP CHECKLIST: AIP SUP: 01/20, 02/20, 03/20, 04/20 AIRAC AIP SUP: 01/18 AIC CHECKLIST: AIC(SERIES A): 02/17, 04/17, 03/20, 05/20, 06/20)
- 3 weeks ago -

010138 ZMUBYNYX
(C0243/20 NOTAMR C0200/20
Q) ZMUB/QKKKK/K /K /K /000/999/4752N10350E999
A) ZMUB B) 2009010138 C) 2010010700 EST
E) CHECKLIST YEAR=2020 0192 0201 0202 0212 0213 0215 0220 0224 0225 0226 0227 0228 0229 0233 0237 0238 0239 0240 0241 0242 LATEST PUBLICATIONS: AIRAC AIP SUP : 01/18 WEF 21 JUN 2018 AIP SUP : 04/20 PUBLICATION DATE 27 AUG 2020 AIRAC AIP AMDT: 07/20 WEF 08 OCT 2020 AIP AMDT : 03/20 PUBLICATION DATE 27 AUG 2020 AIC(SERIES C) : 03/20 PUBLICATION DATE 20 JUL 2020 AIP DATA SET : AIPZM-AMDT01-20 WEF 08 OCT 2020 OBST DATA SET: O-AREA1ZM200618 WEF 18 JUN 2020 O-AREA2ZMCK200618 WEF 18 JUN 2020 O-AREA2ZMUB200730 WEF 10 SEP 2020 O-AREA3ZMCK200618 WEF 18 JUN 2020 O-AREA3ZMUB200618 WEF 18 JUN 2020 TERRAIN DATA SET: T-AREA1ZM200618 WEF 18 JUN 2020 T-AREA2ZMCK200618 WEF 18 JUN 2020 T-AREA2ZMUB200618 WEF 18 JUN 2020 T-AREA3ZMCK200618 WEF 18 JUN 2020 T-AREA3ZMUB200618 WEF 18 JUN 2020 AD MAPPING DATA SET: AMDBZMCK200618 WEF 18 JUN 2020 AMDBZMUB200618 WEF 18 JUN 2020 AMDBZMDZ200618 WEF 18 JUN 2020 IFP DATA SET: IFPZM20 WEF 10 SEP 2020 AIP SUP CHECKLIST: AIP SUP: 01/20, 02/20, 03/20, 04/20 AIRAC AIP SUP: 01/18 AIC CHECKLIST: AIC(SERIES C): 02/08, 02/20, 03/20 )
- 3 weeks ago -

270852 ZMUBYNYX
(A0513/20 NOTAMN
Q) ZMUB/QPDTT/I /BO /A /000/999/4750N10646E005
A) ZMUB B) 2010080000 C) 2010212359
E) TRIGGER NOTAM-PERM AIRAC AIP AMDT 07/20 WEF 08 OCT 2020 NAME OF SID VIZOT1A CHANGED TO VIZOT1G)
- 4 weeks ago -

211105 ZMUBYNYX
(A0501/20 NOTAMN
Q) ZMUB/QFAHX/IV/NBO/A /000/999/4752N10644E001
A) ZMUB B) 2008212300 C) 2010151230
D) DAILY 2300-0130 0900-1230
E) AD BIRD CONCENTRATION WI 1.75KM RADIUS CENTRED ON 475204N1064401E
F) GND G) 100M AGL)
- 1 month ago -

311606 ZMUBYNYX
(A0462/20 NOTAMN
Q) ZMUB/QFATT/IV/BO /A /000/999/4750N10646E005
A) ZMUB B) 2009100000 C) 2009232359
E) TRIGGER NOTAM-PERM AIRAC AIP AMDT 06/20 WEF 10 SEP 20 CHANGES OF CALL SIGN -VOLMET -SAR)
- 2 months ago -

METAR
METAR ZMUB 230700Z 30004MPS 250V340 9999 FEW033 17/M00 Q1016 NOSIG RMK QFE655.0 30 MOP=
- 18 minutes ago -

TAF
TAF ZMUB 230450Z 2306/2315 VRB02MPS 9999 SCT033=
- 2 hours ago -

TAF ZMUB 230440Z 2306/2412 VRB02MPS 9999 SCT033 TX18/2307Z TN00/2321Z BECMG 2403/2405 16005MPS=
- 2 hours ago -

TAF ZMUB 230150Z 2303/2312 VRB02MPS 9999 SCT033=
- 5 hours ago -

TAF ZMUB 230150Z 2303/2312 VRB02MPS 9999 SCT033=
- 5 hours ago -

TAF ZMUB 222250Z 2300/2309 VRB02MPS 9999 SCT033=
- 8 hours ago -

TAF COR ZMUB 222231Z 2300/2406 VRB02MPS 9999 SCT033 TX17/2307Z TN00/2321Z BECMG 2402/2404 16005MPS=
- 9 hours ago -

TAF ZMUB 222230Z 2300/2406 VRB02MPS 9999 SCT033 TX17/2307Z TN00/2321Z BECMG 2302/2304 16005MPS=
- 9 hours ago -

TAF ZMUB 221951Z 2221/2306 VRB02MPS CAVOK=
- 11 hours ago -

TAF ZMUB 221630Z 2218/2324 VRB02MPS 9999 SCT033 TNM03/2221Z TX17/2307Z=
- 15 hours ago -

TAF COR ZMUB 221030Z 2212/2318 VRB02MPS CAVOK TNM03/2221Z TX17/2307Z=
- 20 hours ago -

TAF ZMUB 220430Z 2206/2312 VRB02MPS CAVOK TNM03/2221Z TX17/2307Z=
- 21 hours ago -

TAF ZMUB 220430Z 2206/2312 VRB02MPS CAVOK TX19/2207Z TNM03/2221Z=
- 1 day ago -

TAF ZMUB 212230Z 2200/2306 VRB02MPS 9999 SCT033 TX19/2207Z TNM01/2221Z=
- 1 day ago -

TAF ZMUB 192235Z 2000/3006 33005MPS 9999 FEW023 BKN033 BKN100 TX12/2007Z TNM03/2021Z BECMG 2001/2003 34008MPS SCT033 SCT100 BECMG 2011/2013 VRB02MPS=
- 3 days ago -